createdAt,value
2022-10-23T00:01:43.157Z,13.07
2022-10-23T00:04:14.806Z,13.09
2022-10-23T00:06:42.074Z,13.04
2022-10-23T00:09:10.223Z,13.04
2022-10-23T00:11:36.991Z,13.00
2022-10-23T00:14:05.970Z,12.98
2022-10-23T00:16:32.531Z,12.94
2022-10-23T00:18:59.148Z,12.93
2022-10-23T00:21:26.246Z,12.90
2022-10-23T00:23:53.304Z,12.96
2022-10-23T00:26:19.878Z,12.94
2022-10-23T00:28:50.177Z,12.95
2022-10-23T00:31:17.608Z,13.01
2022-10-23T00:33:44.203Z,13.02
2022-10-23T00:36:12.815Z,13.01
2022-10-23T00:38:39.926Z,13.03
2022-10-23T00:41:08.134Z,13.03
2022-10-23T00:43:54.181Z,13.05
2022-10-23T00:46:20.652Z,13.09
2022-10-23T00:48:47.200Z,13.10
2022-10-23T00:51:13.719Z,13.15
2022-10-23T00:53:40.196Z,13.12
2022-10-23T00:56:06.998Z,13.12
2022-10-23T00:58:33.481Z,13.16
2022-10-23T01:01:00.071Z,13.16
2022-10-23T01:03:28.549Z,13.21
2022-10-23T01:06:20.398Z,13.20
2022-10-23T01:09:00.921Z,13.24
2022-10-23T01:11:46.773Z,13.20
2022-10-23T01:14:37.811Z,13.21
2022-10-23T01:17:20.521Z,13.15
2022-10-23T01:19:56.009Z,13.12
2022-10-23T01:22:56.378Z,13.12
2022-10-23T01:26:02.533Z,13.10
2022-10-23T01:28:34.255Z,13.04
2022-10-23T01:31:04.612Z,13.07
2022-10-23T01:33:47.634Z,13.03
2022-10-23T01:36:16.730Z,13.04
2022-10-23T01:38:46.237Z,13.05
2022-10-23T01:41:17.900Z,13.02
2022-10-23T01:43:56.929Z,13.02
2022-10-23T01:46:25.793Z,12.98
2022-10-23T01:48:56.602Z,12.94
2022-10-23T01:51:27.276Z,12.98
2022-10-23T01:53:58.181Z,12.93
2022-10-23T01:56:29.356Z,12.88
2022-10-23T01:58:58.310Z,12.86
2022-10-23T02:01:30.489Z,12.89
2022-10-23T02:06:30.163Z,12.96
2022-10-23T02:08:57.066Z,12.96
2022-10-23T02:11:23.777Z,13.07
2022-10-23T02:14:06.870Z,13.09
2022-10-23T02:16:41.413Z,13.08
2022-10-23T02:19:24.846Z,13.16
2022-10-23T02:21:53.986Z,13.14
2022-10-23T02:24:32.873Z,13.11
2022-10-23T02:27:09.745Z,13.09
2022-10-23T02:29:46.045Z,13.20
2022-10-23T02:32:14.913Z,13.15
2022-10-23T02:34:42.955Z,13.09
2022-10-23T02:37:09.550Z,13.13
2022-10-23T02:39:36.227Z,13.14
2022-10-23T02:42:27.471Z,13.13
2022-10-23T02:45:14.256Z,13.15
2022-10-23T02:47:43.821Z,13.15
2022-10-23T02:50:40.118Z,13.09
2022-10-23T02:53:10.560Z,13.05
2022-10-23T02:55:46.892Z,13.03
2022-10-23T02:58:13.276Z,13.07
2022-10-23T03:00:43.517Z,13.04
2022-10-23T03:03:14.830Z,13.04
2022-10-23T03:05:42.142Z,12.96
2022-10-23T03:08:10.382Z,12.98
2022-10-23T03:10:36.874Z,12.98
2022-10-23T03:13:03.787Z,13.08
2022-10-23T03:15:30.367Z,13.09
2022-10-23T03:17:56.890Z,13.10
2022-10-23T03:20:23.401Z,13.09
2022-10-23T03:22:49.877Z,13.09
2022-10-23T03:25:16.471Z,13.10
2022-10-23T03:27:42.924Z,13.10
2022-10-23T03:30:10.024Z,13.15
2022-10-23T03:32:36.568Z,13.18
2022-10-23T03:35:03.183Z,13.12
2022-10-23T03:37:29.644Z,13.12
2022-10-23T03:39:56.133Z,13.10
2022-10-23T03:42:22.625Z,13.12
2022-10-23T03:44:49.491Z,13.14
2022-10-23T03:47:16.106Z,13.18
2022-10-23T03:49:42.627Z,13.16
2022-10-23T03:52:09.271Z,13.16
2022-10-23T03:54:35.869Z,13.13
2022-10-23T03:57:02.566Z,13.22
2022-10-23T03:59:29.111Z,13.22
2022-10-23T04:01:55.958Z,13.21
2022-10-23T04:04:22.541Z,13.21
2022-10-23T04:06:49.157Z,13.21
2022-10-23T04:09:15.894Z,13.22
2022-10-23T04:11:42.403Z,13.21
2022-10-23T04:14:12.290Z,13.18
2022-10-23T04:16:38.987Z,13.19
2022-10-23T04:19:05.471Z,13.19
2022-10-23T04:21:31.959Z,13.21
2022-10-23T04:23:58.421Z,13.21
2022-10-23T04:26:24.865Z,13.16
2022-10-23T04:28:51.361Z,13.16
2022-10-23T04:31:17.880Z,13.18
2022-10-23T04:33:44.396Z,13.17
2022-10-23T04:36:10.944Z,13.16
2022-10-23T04:38:37.422Z,13.15
2022-10-23T04:41:03.918Z,13.14
2022-10-23T04:43:30.429Z,13.11
2022-10-23T04:45:56.866Z,13.13
2022-10-23T04:48:25.653Z,13.13
2022-10-23T04:50:56.756Z,13.12
2022-10-23T04:53:23.506Z,13.10
2022-10-23T04:55:53.798Z,13.12
2022-10-23T04:58:20.539Z,13.15
2022-10-23T05:00:47.886Z,13.11
2022-10-23T05:03:14.725Z,13.10
2022-10-23T05:05:41.515Z,13.13
2022-10-23T05:08:08.412Z,13.13
2022-10-23T05:10:35.271Z,13.16
2022-10-23T05:13:02.191Z,13.13
2022-10-23T05:15:28.662Z,13.17
2022-10-23T05:18:00.799Z,13.17
2022-10-23T05:20:32.927Z,13.19
2022-10-23T05:23:01.908Z,13.17
2022-10-23T05:25:30.279Z,13.16
2022-10-23T05:27:56.790Z,13.18
2022-10-23T05:30:23.330Z,13.14
2022-10-23T05:32:49.816Z,13.15
2022-10-23T05:35:21.894Z,13.11
2022-10-23T05:37:50.873Z,13.18
2022-10-23T05:40:17.622Z,13.19
2022-10-23T05:42:44.453Z,13.11
2022-10-23T05:45:11.270Z,13.01
2022-10-23T05:47:37.771Z,12.89
2022-10-23T05:50:04.732Z,12.84
2022-10-23T05:52:31.171Z,12.83
2022-10-23T05:54:57.581Z,12.89
2022-10-23T05:57:24.056Z,12.85
2022-10-23T05:59:50.549Z,12.80
2022-10-23T06:02:17.058Z,12.77
2022-10-23T06:04:43.571Z,12.75
2022-10-23T06:07:10.034Z,12.78
2022-10-23T06:09:36.640Z,12.78
2022-10-23T06:12:03.302Z,12.79
2022-10-23T06:14:29.760Z,12.80
2022-10-23T06:16:56.271Z,12.86
2022-10-23T06:19:22.761Z,12.86
2022-10-23T06:21:49.233Z,12.89
2022-10-23T06:24:15.924Z,12.93
2022-10-23T06:26:42.380Z,12.94
2022-10-23T06:29:08.825Z,13.01
2022-10-23T06:31:35.305Z,13.05
2022-10-23T06:34:01.795Z,13.15
2022-10-23T06:36:28.395Z,13.16
2022-10-23T06:38:56.429Z,13.17
2022-10-23T06:41:23.039Z,13.23
2022-10-23T06:43:51.834Z,13.30
2022-10-23T06:46:19.474Z,13.32
2022-10-23T06:48:46.110Z,13.34
2022-10-23T06:51:14.805Z,13.40
2022-10-23T06:53:41.886Z,13.45
2022-10-23T06:56:09.278Z,13.53
2022-10-23T06:58:37.429Z,13.57
2022-10-23T07:01:07.939Z,13.64
2022-10-23T07:03:34.873Z,13.62
2022-10-23T07:06:05.180Z,13.69
2022-10-23T07:08:32.026Z,13.72
2022-10-23T07:11:03.589Z,13.75
2022-10-23T07:13:30.217Z,13.80
2022-10-23T07:15:56.722Z,13.87
2022-10-23T07:18:23.276Z,13.86
2022-10-23T07:20:51.396Z,13.94
2022-10-23T07:23:17.893Z,14.03
2022-10-23T07:25:44.338Z,14.00
2022-10-23T07:28:10.798Z,14.06
2022-10-23T07:30:37.281Z,14.10
2022-10-23T07:33:03.807Z,14.10
2022-10-23T07:35:32.985Z,14.09
2022-10-23T07:38:02.165Z,14.09
2022-10-23T07:40:28.691Z,14.10
2022-10-23T07:42:56.271Z,14.12
2022-10-23T07:45:22.790Z,14.14
2022-10-23T07:47:52.287Z,14.09
2022-10-23T07:50:19.247Z,14.12
2022-10-23T07:52:45.845Z,14.11
2022-10-23T07:55:12.790Z,14.15
2022-10-23T07:57:39.776Z,14.12
2022-10-23T08:00:07.159Z,14.16
2022-10-23T08:02:33.649Z,14.16
2022-10-23T08:05:00.153Z,14.17
2022-10-23T08:07:26.658Z,14.16
2022-10-23T08:09:53.174Z,14.16
2022-10-23T08:12:19.593Z,14.18
2022-10-23T08:14:46.050Z,14.15
2022-10-23T08:17:12.590Z,14.10
2022-10-23T08:19:39.062Z,14.09
2022-10-23T08:22:05.521Z,14.08
2022-10-23T08:24:32.015Z,14.07
2022-10-23T08:26:58.805Z,14.05
2022-10-23T08:29:25.563Z,14.05
2022-10-23T08:31:55.912Z,14.00
2022-10-23T08:34:22.435Z,13.98
2022-10-23T08:36:49.299Z,13.96
2022-10-23T08:39:15.968Z,14.01
2022-10-23T08:41:47.889Z,14.06
2022-10-23T08:44:23.180Z,14.06
2022-10-23T08:47:00.253Z,14.06
2022-10-23T08:49:39.195Z,14.06
2022-10-23T08:52:23.398Z,14.06
2022-10-23T08:54:58.510Z,14.14
2022-10-23T08:57:33.189Z,14.15
2022-10-23T09:00:04.604Z,14.18
2022-10-23T09:02:37.504Z,14.24
2022-10-23T09:05:04.205Z,14.19
2022-10-23T09:07:32.398Z,14.21
2022-10-23T09:10:25.384Z,14.19
2022-10-23T09:12:52.082Z,14.26
2022-10-23T09:15:47.238Z,14.35
2022-10-23T09:18:17.395Z,14.36
2022-10-23T09:20:46.967Z,14.39
2022-10-23T09:23:23.056Z,14.37
2022-10-23T09:25:55.483Z,14.37
2022-10-23T09:28:27.572Z,14.48
2022-10-23T09:30:54.259Z,14.48
2022-10-23T09:33:26.143Z,14.38
2022-10-23T09:35:58.556Z,14.46
2022-10-23T09:38:31.710Z,14.57
2022-10-23T09:41:18.439Z,14.56
2022-10-23T09:43:45.478Z,14.53
2022-10-23T09:46:15.013Z,14.58
2022-10-23T09:48:44.348Z,14.54
2022-10-23T09:51:18.602Z,14.57
2022-10-23T09:53:51.621Z,14.62
2022-10-23T09:56:28.303Z,14.82
2022-10-23T09:59:01.401Z,14.90
2022-10-23T10:01:31.007Z,14.92
2022-10-23T10:03:57.933Z,15.09
2022-10-23T10:06:31.124Z,15.10
2022-10-23T10:09:10.631Z,15.10
2022-10-23T10:11:51.653Z,15.15
2022-10-23T10:14:53.517Z,15.26
2022-10-23T10:17:25.780Z,15.28
2022-10-23T10:20:29.830Z,15.30
2022-10-23T10:23:02.872Z,15.30
2022-10-23T10:25:56.598Z,15.40
2022-10-23T10:28:50.277Z,15.52
2022-10-23T10:31:27.333Z,15.55
2022-10-23T10:34:27.071Z,15.50
2022-10-23T10:36:56.831Z,15.59
2022-10-23T10:39:46.076Z,15.53
2022-10-23T10:42:31.057Z,15.64
2022-10-23T10:45:06.289Z,15.65
2022-10-23T10:47:54.356Z,15.64
2022-10-23T10:50:30.469Z,15.59
2022-10-23T10:53:08.525Z,15.67
2022-10-23T10:55:38.781Z,15.75
2022-10-23T10:58:16.517Z,15.82
2022-10-23T11:00:44.879Z,15.91
2022-10-23T11:03:39.853Z,16.03
2022-10-23T11:06:15.112Z,16.16
2022-10-23T11:08:56.284Z,16.10
2022-10-23T11:11:32.105Z,16.16
2022-10-23T11:13:59.049Z,16.19
2022-10-23T11:16:32.560Z,16.19
2022-10-23T11:19:06.688Z,16.19
2022-10-23T11:21:47.524Z,16.24
2022-10-23T11:24:49.144Z,16.35
2022-10-23T11:27:34.722Z,16.36
2022-10-23T11:30:22.854Z,16.51
2022-10-23T11:33:01.100Z,16.60
2022-10-23T11:35:47.971Z,16.72
2022-10-23T11:38:20.300Z,16.77
2022-10-23T11:40:53.564Z,16.84
2022-10-23T11:43:33.379Z,16.92
2022-10-23T11:46:23.387Z,17.09
2022-10-23T11:48:50.773Z,17.10
2022-10-23T11:51:35.806Z,17.30
2022-10-23T11:54:24.930Z,17.40
2022-10-23T11:57:09.298Z,17.61
2022-10-23T11:59:49.160Z,17.78
2022-10-23T12:02:37.451Z,17.94
2022-10-23T12:05:42.231Z,17.99
2022-10-23T12:08:22.216Z,18.14
2022-10-23T12:10:58.893Z,18.31
2022-10-23T12:13:38.680Z,18.48
2022-10-23T12:16:09.539Z,18.55
2022-10-23T12:18:50.945Z,18.74
2022-10-23T12:21:27.175Z,18.88
2022-10-23T12:24:08.463Z,18.92
2022-10-23T12:26:50.804Z,19.01
2022-10-23T12:29:23.838Z,19.05
2022-10-23T12:32:13.657Z,19.32
2022-10-23T12:35:12.984Z,19.42
2022-10-23T12:37:57.682Z,19.64
2022-10-23T12:40:29.866Z,20.01
2022-10-23T12:42:59.140Z,20.10
2022-10-23T12:45:30.033Z,20.12
2022-10-23T12:47:57.091Z,19.97
2022-10-23T12:50:23.513Z,20.20
2022-10-23T12:53:03.314Z,20.21
2022-10-23T12:55:49.946Z,20.33
2022-10-23T12:58:33.336Z,20.36
2022-10-23T13:01:02.853Z,20.62
2022-10-23T13:03:31.906Z,20.70
2022-10-23T13:06:02.598Z,20.54
2022-10-23T13:08:41.663Z,20.53
2022-10-23T13:11:13.794Z,20.60
2022-10-23T13:13:41.444Z,20.57
2022-10-23T13:16:20.413Z,20.67
2022-10-23T13:18:47.599Z,20.60
2022-10-23T13:21:20.242Z,20.41
2022-10-23T13:23:47.664Z,20.09
2022-10-23T13:26:24.717Z,19.97
2022-10-23T13:28:51.673Z,19.91
2022-10-23T13:31:18.127Z,20.04
2022-10-23T13:33:47.565Z,20.44
2022-10-23T13:36:13.967Z,20.91
2022-10-23T13:38:42.751Z,21.12
2022-10-23T13:41:15.036Z,21.12
2022-10-23T13:43:42.410Z,20.99
2022-10-23T13:46:16.880Z,20.61
2022-10-23T13:48:43.830Z,20.33
2022-10-23T13:51:22.459Z,20.16
2022-10-23T13:53:49.602Z,20.03
2022-10-23T13:56:18.962Z,19.83
2022-10-23T13:58:45.787Z,19.75
2022-10-23T14:01:22.959Z,19.64
2022-10-23T14:03:50.970Z,19.53
2022-10-23T14:06:17.867Z,19.40
2022-10-23T14:08:44.389Z,19.22
2022-10-23T14:11:12.411Z,19.11
2022-10-23T14:13:39.015Z,19.01
2022-10-23T14:16:06.705Z,18.89
2022-10-23T14:18:34.056Z,18.80
2022-10-23T14:21:01.881Z,18.71
2022-10-23T14:23:28.675Z,18.64
2022-10-23T14:26:07.510Z,18.60
2022-10-23T14:28:34.490Z,18.55
2022-10-23T14:31:05.718Z,18.52
2022-10-23T14:33:32.475Z,18.47
2022-10-23T14:35:59.083Z,18.51
2022-10-23T14:38:25.650Z,18.49
2022-10-23T14:40:54.829Z,18.47
2022-10-23T14:43:22.624Z,18.41
2022-10-23T14:45:49.307Z,18.32
2022-10-23T14:48:15.904Z,18.30
2022-10-23T14:50:45.329Z,18.32
2022-10-23T14:53:12.333Z,18.36
2022-10-23T14:55:39.905Z,18.36
2022-10-23T14:58:06.751Z,18.28
2022-10-23T15:00:33.395Z,18.30
2022-10-23T15:03:00.081Z,18.29
2022-10-23T15:05:26.585Z,18.30
2022-10-23T15:07:54.681Z,18.25
2022-10-23T15:10:21.149Z,18.20
2022-10-23T15:12:48.546Z,18.18
2022-10-23T15:15:15.199Z,18.17
2022-10-23T15:17:42.336Z,18.15
2022-10-23T15:20:09.395Z,18.17
2022-10-23T15:22:35.905Z,18.23
2022-10-23T15:25:02.456Z,18.29
2022-10-23T15:27:28.946Z,18.36
2022-10-23T15:29:55.437Z,18.47
2022-10-23T15:32:21.934Z,18.54
2022-10-23T15:34:49.731Z,18.60
2022-10-23T15:37:16.316Z,18.58
2022-10-23T15:39:43.070Z,18.56
2022-10-23T15:42:10.708Z,18.55
2022-10-23T15:44:40.031Z,18.58
2022-10-23T15:47:06.566Z,18.55
2022-10-23T15:49:33.313Z,18.51
2022-10-23T15:51:59.919Z,18.43
2022-10-23T15:54:29.299Z,18.44
2022-10-23T15:56:58.516Z,18.40
2022-10-23T15:59:25.626Z,18.40
2022-10-23T16:01:52.349Z,18.36
2022-10-23T16:04:19.264Z,18.28
2022-10-23T16:06:46.087Z,18.22
2022-10-23T16:09:13.844Z,18.19
2022-10-23T16:11:42.791Z,18.12
2022-10-23T16:14:14.068Z,18.03
2022-10-23T16:16:40.822Z,17.96
2022-10-23T16:19:07.328Z,17.81
2022-10-23T16:21:36.290Z,17.75
2022-10-23T16:24:05.356Z,17.65
2022-10-23T16:26:32.264Z,17.53
2022-10-23T16:29:01.651Z,17.43
2022-10-23T16:31:29.747Z,17.35
2022-10-23T16:34:00.903Z,17.30
2022-10-23T16:36:28.520Z,17.19
2022-10-23T16:38:55.463Z,17.20
2022-10-23T16:41:22.005Z,17.22
2022-10-23T16:43:48.484Z,17.21
2022-10-23T16:46:17.636Z,17.19
2022-10-23T16:48:44.286Z,17.16
2022-10-23T16:51:16.681Z,17.17
2022-10-23T16:53:43.973Z,17.20
2022-10-23T16:56:11.873Z,17.19
2022-10-23T16:58:40.933Z,17.23
2022-10-23T17:01:20.028Z,17.18
2022-10-23T17:03:48.983Z,17.14
2022-10-23T17:06:19.072Z,17.18
2022-10-23T17:08:46.044Z,17.21
2022-10-23T17:11:20.815Z,17.25
2022-10-23T17:13:58.528Z,17.25
2022-10-23T17:16:28.170Z,17.25
2022-10-23T17:18:54.665Z,17.22
2022-10-23T17:21:22.927Z,17.22
2022-10-23T17:23:50.352Z,17.17
2022-10-23T17:26:20.576Z,17.07
2022-10-23T17:28:47.263Z,16.92
2022-10-23T17:31:24.937Z,16.79
2022-10-23T17:33:54.754Z,16.62
2022-10-23T17:36:22.016Z,16.45
2022-10-23T17:38:48.494Z,16.35
2022-10-23T17:41:16.904Z,16.26
2022-10-23T17:43:44.533Z,16.17
2022-10-23T17:46:12.915Z,16.23
2022-10-23T17:48:43.378Z,16.16
2022-10-23T17:51:15.757Z,16.05
2022-10-23T17:53:45.360Z,16.01
2022-10-23T17:56:19.054Z,15.98
2022-10-23T17:58:46.565Z,15.97
2022-10-23T18:01:15.947Z,15.97
2022-10-23T18:03:42.636Z,15.93
2022-10-23T18:06:15.135Z,15.89
2022-10-23T18:08:43.846Z,15.81
2022-10-23T18:11:24.529Z,15.83
2022-10-23T18:13:51.347Z,15.86
2022-10-23T18:16:18.464Z,15.89
2022-10-23T18:18:48.121Z,15.87
2022-10-23T18:21:16.277Z,15.86
2022-10-23T18:23:43.260Z,15.89
2022-10-23T18:26:17.990Z,15.94
2022-10-23T18:28:46.779Z,15.96
2022-10-23T18:31:14.463Z,15.95
2022-10-23T18:33:41.619Z,15.84
2022-10-23T18:36:21.682Z,15.69
2022-10-23T18:38:49.284Z,15.53
2022-10-23T18:41:17.083Z,15.34
2022-10-23T18:43:44.738Z,15.16
2022-10-23T18:46:13.062Z,15.09
2022-10-23T18:48:39.879Z,14.98
2022-10-23T18:51:21.495Z,14.89
2022-10-23T18:53:48.741Z,14.73
2022-10-23T18:56:21.632Z,14.70
2022-10-23T18:58:55.694Z,14.62
2022-10-23T19:01:23.604Z,14.57
2022-10-23T19:03:50.482Z,14.48
2022-10-23T19:06:17.803Z,14.44
2022-10-23T19:08:45.323Z,14.36
2022-10-23T19:11:13.799Z,14.23
2022-10-23T19:13:41.416Z,14.12
2022-10-23T19:16:14.691Z,13.96
2022-10-23T19:18:45.431Z,13.87
2022-10-23T19:21:12.312Z,13.73
2022-10-23T19:23:41.977Z,13.64
2022-10-23T19:26:12.002Z,13.62
2022-10-23T19:28:42.643Z,13.66
2022-10-23T19:31:10.467Z,13.70
2022-10-23T19:33:38.952Z,13.76
2022-10-23T19:36:08.816Z,13.79
2022-10-23T19:38:40.262Z,13.85
2022-10-23T19:41:06.888Z,13.88
2022-10-23T19:43:33.404Z,13.91
2022-10-23T19:46:06.497Z,13.96
2022-10-23T19:48:35.956Z,14.00
2022-10-23T19:51:02.472Z,13.97
2022-10-23T19:53:28.956Z,14.00
2022-10-23T19:56:04.077Z,14.02
2022-10-23T19:58:30.556Z,14.08
2022-10-23T20:00:57.082Z,14.13
2022-10-23T20:03:23.634Z,14.23
2022-10-23T20:05:50.197Z,14.27
2022-10-23T20:08:16.652Z,14.31
2022-10-23T20:10:44.492Z,14.33
2022-10-23T20:13:26.586Z,14.34
2022-10-23T20:15:53.261Z,14.35
2022-10-23T20:18:19.737Z,14.31
2022-10-23T20:20:46.262Z,14.22
2022-10-23T20:23:12.882Z,14.13
2022-10-23T20:25:39.406Z,14.09
2022-10-23T20:28:07.482Z,14.02
2022-10-23T20:30:40.999Z,13.97
2022-10-23T20:33:07.658Z,13.93
2022-10-23T20:35:43.039Z,13.89
2022-10-23T20:38:09.993Z,13.96
2022-10-23T20:40:36.824Z,13.93
2022-10-23T20:43:03.820Z,13.93
2022-10-23T20:45:30.389Z,13.86
2022-10-23T20:47:57.400Z,13.83
2022-10-23T20:50:23.921Z,13.76
2022-10-23T20:52:51.188Z,13.72
2022-10-23T20:55:18.405Z,13.64
2022-10-23T20:57:45.155Z,13.60
2022-10-23T21:00:12.237Z,13.60
2022-10-23T21:02:38.758Z,13.56
2022-10-23T21:05:05.730Z,13.51
2022-10-23T21:07:32.234Z,13.49
2022-10-23T21:09:58.701Z,13.48
2022-10-23T21:12:25.285Z,13.53
2022-10-23T21:14:53.256Z,13.57
2022-10-23T21:17:20.624Z,13.63
2022-10-23T21:19:47.474Z,13.68
2022-10-23T21:22:14.010Z,13.71
2022-10-23T21:24:40.548Z,13.73
2022-10-23T21:27:07.026Z,13.76
2022-10-23T21:29:33.624Z,13.78
2022-10-23T21:32:01.629Z,13.80
2022-10-23T21:34:29.202Z,13.89
2022-10-23T21:39:43.975Z,14.08
2022-10-23T21:42:12.163Z,14.14
2022-10-23T21:44:38.789Z,14.21
2022-10-23T21:47:05.237Z,14.24
2022-10-23T21:49:31.928Z,14.26
2022-10-23T21:51:58.393Z,14.24
2022-10-23T21:54:24.920Z,14.17
2022-10-23T21:56:53.812Z,14.15
2022-10-23T21:59:22.817Z,14.14
2022-10-23T22:01:49.482Z,14.12
2022-10-23T22:04:18.161Z,14.13
2022-10-23T22:06:46.034Z,14.10
2022-10-23T22:09:14.595Z,13.98
2022-10-23T22:11:41.139Z,13.92
2022-10-23T22:14:07.674Z,13.83
2022-10-23T22:16:34.181Z,13.77
2022-10-23T22:19:00.601Z,13.74
2022-10-23T22:21:29.389Z,13.74
2022-10-23T22:23:58.804Z,13.73
2022-10-23T22:26:37.690Z,13.77
2022-10-23T22:29:09.150Z,13.87
2022-10-23T22:31:37.862Z,13.96
2022-10-23T22:34:18.591Z,14.02
2022-10-23T22:36:53.554Z,14.04
2022-10-23T22:39:20.312Z,13.94
2022-10-23T22:41:47.637Z,14.00
2022-10-23T22:44:15.222Z,13.98
2022-10-23T22:46:42.668Z,13.92
2022-10-23T22:49:09.321Z,13.87
2022-10-23T22:51:38.546Z,13.84
2022-10-23T22:54:05.275Z,13.79
2022-10-23T22:56:31.819Z,13.77
2022-10-23T22:58:58.493Z,13.72
2022-10-23T23:01:39.540Z,13.75
2022-10-23T23:04:19.462Z,13.78
2022-10-23T23:06:52.631Z,13.89
2022-10-23T23:09:20.180Z,13.90
2022-10-23T23:11:52.184Z,13.92
2022-10-23T23:14:23.223Z,13.93
2022-10-23T23:16:51.642Z,14.04
2022-10-23T23:19:18.203Z,14.11
2022-10-23T23:21:44.663Z,14.18
2022-10-23T23:24:12.275Z,14.22
2022-10-23T23:26:38.914Z,14.23
2022-10-23T23:29:05.479Z,14.21
2022-10-23T23:31:31.930Z,14.22
2022-10-23T23:33:58.421Z,14.26
2022-10-23T23:36:27.141Z,14.33
2022-10-23T23:38:54.005Z,14.42
2022-10-23T23:41:21.581Z,14.49
2022-10-23T23:43:48.152Z,14.57
2022-10-23T23:46:17.825Z,14.59
2022-10-23T23:48:49.401Z,14.53
2022-10-23T23:51:18.566Z,14.52
2022-10-23T23:53:45.084Z,14.50
2022-10-23T23:56:11.610Z,14.50
2022-10-23T23:58:38.157Z,14.43
